Rp Zug — HE7351 — position and weather

sailwx.info

Track history (hours):
 
Tides and Currents Weather Stations Pressure Air Temp Water Temp Dewpoint Dewpoint Depression Visibility Wind Speed Wind Dir Waves Ship Positions

Rp Zug

Last reported at 2018-Feb-20 11:27 UTC. Time now 2018-Feb-20 12:07 UTC.
Position N 49°18' E 008°29'.

Length 110 m; draft 2.9 m.

Type: Tanker. MMSI: 269057351.

Date/timePositionNaut miles runAvg speedWind from/ knotsBaromVisibWave heightAir tempDewpointWater temp
2018-Feb-20 11:27N 49°18' E 008°29'2 4.7
2018-Feb-20 11:00N 49°19' E 008°27'3 5.2
2018-Feb-20 10:27N 49°22' E 008°30'2 5.3
2018-Feb-20 10:00N 49°24' E 008°30'3 5.1
2018-Feb-20 09:30N 49°27' E 008°30'2 4.6
2018-Feb-20 09:00N 49°27' E 008°27'2 4.1
2018-Feb-20 08:30N 49°29' E 008°27'1 2.4
2018-Feb-20 08:00N 49°31' E 008°26'1 2.3
2018-Feb-20 07:30N 49°32' E 008°26'3 5.8
2018-Feb-20 07:00N 49°35' E 008°25'4 6.0
2018-Feb-20 06:17N 49°39' E 008°22'78 3.9
2018-Feb-19 10:25N 50°41' E 007°11'2 4.7
2018-Feb-19 09:56N 50°43' E 007°08'2 4.7
2018-Feb-19 09:30N 50°45' E 007°06'2 4.5
2018-Feb-19 09:00N 50°46' E 007°04'3 4.4
2018-Feb-19 08:22N 50°49' E 007°02'2 4.6
2018-Feb-19 07:57N 50°50' E 006°59'2 4.0
2018-Feb-19 07:27N 50°51' E 007°01'2 4.6
2018-Feb-19 06:56N 50°53' E 007°03'2 4.4
2018-Feb-19 06:30N 50°54' E 006°60'2 4.8
2018-Feb-19 06:00N 50°56' E 006°58'3 5.1
2018-Feb-19 05:30N 50°58' E 006°60'13 3.3
2018-Feb-19 01:37N 51°09' E 006°49'0 4.2
2018-Feb-19 01:30N 51°09' E 006°48'2 4.2
2018-Feb-19 01:00N 51°11' E 006°48'2 4.4
2018-Feb-19 00:30N 51°11' E 006°44'2 4.3
2018-Feb-19 00:00N 51°13' E 006°43'1 2.9
2018-Feb-18 23:30N 51°13' E 006°46'2 3.7
2018-Feb-18 23:00N 51°15' E 006°45'2 3.8
2018-Feb-18 22:22N 51°17' E 006°42'4 3.4
2018-Feb-18 21:06N 51°21' E 006°40'0 4.7
2018-Feb-18 21:00N 51°21' E 006°40'2 3.3
2018-Feb-18 20:30N 51°22' E 006°41'2 4.7
2018-Feb-18 20:00N 51°23' E 006°44'2 4.5
2018-Feb-18 19:30N 51°26' E 006°43'2 4.0
2018-Feb-18 19:00N 51°28' E 006°43'2 4.3
2018-Feb-18 18:30N 51°29' E 006°41'2 4.4
2018-Feb-18 18:00N 51°30' E 006°43'2 4.7
2018-Feb-18 17:30N 51°32' E 006°41'2 4.7
2018-Feb-18 17:00N 51°34' E 006°41'3 4.7
2018-Feb-18 16:27N 51°34' E 006°37'2 4.8
2018-Feb-18 16:00N 51°36' E 006°36'2 4.6
2018-Feb-18 15:30N 51°38' E 006°36'2 4.2
2018-Feb-18 15:00N 51°39' E 006°33'3 5.4
2018-Feb-18 14:30N 51°40' E 006°29'15 4.8
2018-Feb-18 11:22N 51°50' E 006°11'2 5.4
2018-Feb-18 11:00N 51°51' E 006°08'3 5.7
2018-Feb-18 10:30N 51°52' E 006°04'1 1.1
2018-Feb-18 10:00N 51°52' E 006°03'1 1.0
2018-Feb-18 09:30N 51°52' E 006°02'8 4.8
2018-Feb-18 07:44N 51°52' E 005°49'2 6.6
2018-Feb-18 07:30N 51°53' E 005°46'3 6.4
2018-Feb-18 07:00N 51°54' E 005°41'3 6.6
2018-Feb-18 06:30N 51°54' E 005°36'3 6.4
2018-Feb-18 06:00N 51°53' E 005°31'4 6.1
2018-Feb-18 05:23N 51°52' E 005°25'2 6.5
2018-Feb-18 05:00N 51°50' E 005°23'2 4.6
2018-Feb-18 04:30N 51°49' E 005°20'3 5.9
2018-Feb-18 04:00N 51°49' E 005°15'3 6.1
2018-Feb-18 03:28N 51°49' E 005°10'3 6.2
2018-Feb-18 02:59N 51°50' E 005°05'3 6.6
2018-Feb-18 02:30N 51°49' E 005°00'4 7.4
2018-Feb-18 02:00N 51°49' E 004°54'4 7.3
2018-Feb-18 01:30N 51°49' E 004°48'4 7.4
2018-Feb-18 01:01N 51°49' E 004°42'3 6.2
2018-Feb-18 00:30N 51°52' E 004°39'4 7.3
2018-Feb-18 00:00N 51°54' E 004°35'3 6.2
2018-Feb-17 23:30N 51°55' E 004°30'4 7.3
2018-Feb-17 23:00N 51°54' E 004°24'2 2.7
2018-Feb-17 22:26N 51°53' E 004°22'0 0.0
2018-Feb-17 21:56N 51°53' E 004°22'0 0.0
2018-Feb-17 21:29N 51°53' E 004°22'0 0.0
2018-Feb-17 20:59N 51°53' E 004°22'0 0.0
2018-Feb-17 20:26N 51°53' E 004°22'0 0.0
2018-Feb-17 19:56N 51°53' E 004°22'0 0.0
2018-Feb-17 19:26N 51°53' E 004°22'0 0.0
2018-Feb-17 18:56N 51°53' E 004°22'0 0.0
2018-Feb-17 18:26N 51°53' E 004°22'0 0.0
2018-Feb-17 17:56N 51°53' E 004°22'0 0.0
2018-Feb-17 17:23N 51°53' E 004°22'0 0.0
2018-Feb-17 16:56N 51°53' E 004°22'0 0.0
2018-Feb-17 16:26N 51°53' E 004°22'0 0.0
2018-Feb-17 15:56N 51°53' E 004°22'0 0.0
2018-Feb-17 15:26N 51°53' E 004°22'0 0.0
2018-Feb-17 14:59N 51°53' E 004°22'0 0.0
2018-Feb-17 14:26N 51°53' E 004°22'0 0.0
2018-Feb-17 13:59N 51°53' E 004°22'0 0.0
2018-Feb-17 13:26N 51°53' E 004°22'0 0.0
2018-Feb-17 12:59N 51°53' E 004°22'2 4.4
2018-Feb-17 12:30N 51°54' E 004°25'4 7.6
2018-Feb-17 12:00N 51°54' E 004°31'5 9.1
2018-Feb-17 11:30N 51°53' E 004°38'4 8.7
2018-Feb-17 11:00N 51°49' E 004°42'510.2
2018-Feb-17 10:30N 51°49' E 004°51'510.1
2018-Feb-17 10:00N 51°49' E 004°59'510.4
2018-Feb-17 09:30N 51°49' E 005°07'510.7
2018-Feb-17 09:00N 51°49' E 005°16'4 8.7
2018-Feb-17 08:30N 51°50' E 005°23'610.3
2018-Feb-17 07:58N 51°53' E 005°30'511.3
2018-Feb-17 07:30N 51°54' E 005°38'611.4
2018-Feb-17 07:00N 51°53' E 005°47'6 9.5
2018-Feb-17 06:21N 51°52' E 005°57'4 8.6
2018-Feb-17 05:55N 51°52' E 006°03'511.5
2018-Feb-17 05:30N 51°51' E 006°10'1310.1
2018-Feb-17 04:16N 51°43' E 006°26'311.3
2018-Feb-17 04:00N 51°40' E 006°29'510.0
2018-Feb-17 03:30N 51°38' E 006°36'4 8.2
2018-Feb-17 03:00N 51°35' E 006°40'510.5
2018-Feb-17 02:30N 51°30' E 006°43'4 8.5
2018-Feb-17 02:00N 51°26' E 006°43'5 9.8
2018-Feb-17 01:28N 51°21' E 006°39'5 9.6
2018-Feb-17 00:59N 51°17' E 006°42'3 6.5
2018-Feb-17 00:30N 51°14' E 006°44'5 9.5
2018-Feb-17 00:00N 51°10' E 006°48'10 8.6
2018-Feb-16 22:52N 51°02' E 006°57'410.9
2018-Feb-16 22:30N 50°59' E 006°60'5 9.1
2018-Feb-16 21:56N 50°54' E 007°03'410.0
2018-Feb-16 21:29N 50°50' E 006°59'611.9
2018-Feb-16 20:59N 50°45' E 007°06'5 0.3
2018-Feb-16 04:01N 50°41' E 007°11'1 4.9
2018-Feb-16 03:54N 50°41' E 007°10'2 5.0
2018-Feb-16 03:27N 50°43' E 007°08'2 5.0
2018-Feb-16 03:00N 50°45' E 007°06'3 5.2
2018-Feb-16 02:29N 50°47' E 007°03'2 4.9
2018-Feb-16 01:58N 50°49' E 007°02'1 1.1
2018-Feb-16 01:11N 50°49' E 007°00'0 0.0
2018-Feb-16 00:59N 50°49' E 007°00'0 0.0
2018-Feb-16 00:23N 50°49' E 007°00'0 0.0
2018-Feb-15 23:59N 50°49' E 007°00'0 0.0
2018-Feb-15 20:17N 50°49' E 007°00'0 0.0
2018-Feb-15 19:59N 50°49' E 007°00'0 0.0
2018-Feb-15 19:29N 50°49' E 007°00'0 0.0
2018-Feb-15 18:59N 50°49' E 007°00'0 0.0
2018-Feb-15 18:29N 50°49' E 007°00'0 0.0
2018-Feb-15 17:56N 50°49' E 007°00'0 0.0
2018-Feb-15 17:26N 50°49' E 007°00'0 0.0
2018-Feb-15 16:56N 50°49' E 007°00'0 0.0
2018-Feb-15 16:26N 50°49' E 007°00'0 0.0
2018-Feb-15 15:56N 50°49' E 007°00'0 0.0
2018-Feb-15 15:27N 50°49' E 007°00'0 0.0
2018-Feb-15 14:57N 50°49' E 007°00'0 1.0
2018-Feb-15 14:30N 50°49' E 006°60'0 0.0
2018-Feb-15 14:00N 50°49' E 006°60'0 0.0
2018-Feb-15 13:30N 50°49' E 006°60'0 0.0
2018-Feb-15 13:00N 50°49' E 006°60'0 0.0
2018-Feb-15 12:30N 50°49' E 006°60'0 0.0
2018-Feb-15 12:00N 50°49' E 006°60'0 0.0
2018-Feb-15 11:30N 50°49' E 006°60'0 0.0
2018-Feb-15 10:48N 50°49' E 006°60'0 0.0
2018-Feb-15 10:30N 50°49' E 006°60'0 0.0
2018-Feb-15 10:00N 50°49' E 006°60'0 0.0
2018-Feb-15 09:24N 50°49' E 006°60'0 0.0
2018-Feb-15 08:42N 50°49' E 006°60'0 0.0
2018-Feb-15 08:30N 50°49' E 006°60'0 0.0
2018-Feb-15 08:00N 50°49' E 006°60'0 0.0
2018-Feb-15 07:30N 50°49' E 006°60'0 0.0
2018-Feb-15 06:57N 50°49' E 006°60'0 0.0
2018-Feb-15 06:21N 50°49' E 006°60'0 0.0
2018-Feb-15 05:54N 50°49' E 006°60'0 0.0
2018-Feb-15 04:21N 50°49' E 006°60'0 0.0
2018-Feb-15 03:54N 50°49' E 006°60'0 0.0
2018-Feb-15 03:27N 50°49' E 006°60'0 0.0
2018-Feb-15 03:00N 50°49' E 006°60'0 0.0
2018-Feb-15 02:30N 50°49' E 006°60'0 0.0
2018-Feb-15 01:54N 50°49' E 006°60'0 0.0
2018-Feb-15 01:18N 50°49' E 006°60'0 0.0
2018-Feb-15 00:57N 50°49' E 006°60'0 0.0
2018-Feb-15 00:30N 50°49' E 006°60'0 0.0
2018-Feb-15 00:00N 50°49' E 006°60'0 0.0
2018-Feb-14 23:12N 50°49' E 006°60'0 0.0
2018-Feb-14 23:00N 50°49' E 006°60'0 0.0
2018-Feb-14 22:30N 50°49' E 006°60'0 0.0
2018-Feb-14 18:27N 50°49' E 006°60'0 0.0
2018-Feb-14 17:51N 50°49' E 006°60'0 0.0
2018-Feb-14 17:27N 50°49' E 006°60'0 0.0
2018-Feb-14 16:57N 50°49' E 006°60'0 0.0
2018-Feb-14 16:29N 50°49' E 006°60'0 0.0
2018-Feb-14 15:59N 50°49' E 006°60'0 0.0
2018-Feb-14 15:27N 50°49' E 006°60'3 5.9
2018-Feb-14 14:59N 50°47' E 007°02'712.1
2018-Feb-14 14:23N 50°42' E 007°10'1 0.0
2018-Feb-13 04:33N 50°41' E 007°11'0 5.7
2018-Feb-13 04:30N 50°41' E 007°11'3 5.5
2018-Feb-13 04:00N 50°43' E 007°08'3 5.6
2018-Feb-13 03:30N 50°46' E 007°06'3 5.8
2018-Feb-13 03:00N 50°47' E 007°02'3 5.0
2018-Feb-13 02:29N 50°50' E 006°60'2 3.8
2018-Feb-13 01:58N 50°51' E 007°01'2 5.0
2018-Feb-13 01:29N 50°54' E 007°03'2 5.1
2018-Feb-13 01:01N 50°54' E 006°59'3 5.7
2018-Feb-13 00:28N 50°57' E 006°59'2 4.3
2018-Feb-12 23:58N 50°59' E 006°58'10 4.7
2018-Feb-12 21:47N 51°09' E 006°51'1 2.9
2018-Feb-12 21:25N 51°09' E 006°50'1 3.3
2018-Feb-12 21:00N 51°09' E 006°48'2 4.1
2018-Feb-12 20:30N 51°11' E 006°45'3 5.2
2018-Feb-12 20:00N 51°13' E 006°43'2 3.7
2018-Feb-12 19:31N 51°14' E 006°46'3 5.4
2018-Feb-12 18:59N 51°16' E 006°43'4 5.0
2018-Feb-12 18:07N 51°20' E 006°43'1 6.0
2018-Feb-12 17:56N 51°21' E 006°41'2 4.1
2018-Feb-12 17:31N 51°22' E 006°40'3 5.8
2018-Feb-12 17:00N 51°23' E 006°44'3 5.3
2018-Feb-12 16:31N 51°26' E 006°43'2 4.8
2018-Feb-12 16:00N 51°28' E 006°42'2 3.4
2018-Feb-12 15:30N 51°30' E 006°43'3 5.2
2018-Feb-12 15:00N 51°32' E 006°41'3 5.3
2018-Feb-12 14:31N 51°35' E 006°40'3 5.4
2018-Feb-12 14:00N 51°35' E 006°36'3 6.4
2018-Feb-12 13:30N 51°38' E 006°35'2 4.1
2018-Feb-12 13:01N 51°39' E 006°34'3 6.2
2018-Feb-12 12:31N 51°40' E 006°29'14 5.5
2018-Feb-12 09:54N 51°50' E 006°12'3 6.4
2018-Feb-12 09:31N 51°51' E 006°08'3 6.5
2018-Feb-12 09:00N 51°52' E 006°03'0 0.6
2018-Feb-12 08:30N 51°52' E 006°03'0 0.3
2018-Feb-12 08:01N 51°52' E 006°02'8 5.5
2018-Feb-12 06:37N 51°52' E 005°50'1 7.4
2018-Feb-12 06:29N 51°52' E 005°49'3 7.2
2018-Feb-12 06:00N 51°53' E 005°44'4 7.3
2018-Feb-12 05:31N 51°54' E 005°38'4 7.2
2018-Feb-12 05:01N 51°54' E 005°32'4 6.9
2018-Feb-12 04:29N 51°53' E 005°26'3 7.0
2018-Feb-12 04:01N 51°50' E 005°23'3 5.1
2018-Feb-12 03:30N 51°49' E 005°20'3 6.6
2018-Feb-12 03:00N 51°49' E 005°14'4 7.0
2018-Feb-12 02:29N 51°49' E 005°08'3 6.9
2018-Feb-12 02:00N 51°49' E 005°03'4 8.0
2018-Feb-12 01:31N 51°50' E 004°57'4 8.1
2018-Feb-12 01:00N 51°48' E 004°51'4 7.8
2018-Feb-12 00:30N 51°46' E 004°45'4 8.9
2018-Feb-12 00:01N 51°43' E 004°40'5 9.8
2018-Feb-11 23:30N 51°42' E 004°32'4 8.4
2018-Feb-11 23:00N 51°42' E 004°25'0 0.0
2018-Feb-11 22:30N 51°42' E 004°25'0 0.0
2018-Feb-11 22:00N 51°42' E 004°25'0 0.0
2018-Feb-11 21:31N 51°42' E 004°25'0 0.0
2018-Feb-11 21:01N 51°42' E 004°25'0 0.0
2018-Feb-11 20:31N 51°42' E 004°25'0 0.1
2018-Feb-11 20:00N 51°42' E 004°25'1 1.6
2018-Feb-11 19:24N 51°41' E 004°24'2 3.9
2018-Feb-11 18:54N 51°40' E 004°22'14 6.1
2018-Feb-11 16:41N 51°36' E 004°01'2 7.9
2018-Feb-11 16:23N 51°35' E 003°58'410.4
2018-Feb-11 15:59N 51°31' E 004°01'4 8.3
2018-Feb-11 15:30N 51°27' E 004°01'2 4.2
2018-Feb-11 15:00N 51°26' E 003°59'4 8.0
2018-Feb-11 14:30N 51°22' E 003°55'4 7.7
2018-Feb-11 13:59N 51°21' E 003°50'1 2.0
2018-Feb-11 13:30N 51°20' E 003°49'1 1.9
2018-Feb-11 13:00N 51°19' E 003°50'4 7.6
2018-Feb-11 12:26N 51°14' E 003°49'3 7.2
2018-Feb-11 11:59N 51°11' E 003°48'3 6.5
2018-Feb-11 11:30N 51°08' E 003°47'0 0.0
2018-Feb-11 11:00N 51°08' E 003°47'0 0.0
2018-Feb-11 10:31N 51°08' E 003°47'0 0.0
2018-Feb-11 10:00N 51°08' E 003°47'0 0.0
2018-Feb-11 09:30N 51°08' E 003°47'0 0.0
2018-Feb-11 08:55N 51°08' E 003°47'0 0.0
2018-Feb-11 08:31N 51°08' E 003°47'0 0.0
2018-Feb-11 08:00N 51°08' E 003°47'0 0.0
2018-Feb-11 07:30N 51°08' E 003°47'0 0.0
2018-Feb-11 07:00N 51°08' E 003°47'0 0.0
2018-Feb-11 06:30N 51°08' E 003°47'0 0.0
2018-Feb-11 06:00N 51°08' E 003°47'0 0.0
2018-Feb-11 05:30N 51°08' E 003°47'0 0.6
2018-Feb-11 05:00N 51°08' E 003°47'1 1.5
2018-Feb-11 04:30N 51°09' E 003°48'0 0.0
2018-Feb-11 03:54N 51°09' E 003°48'0 0.0
2018-Feb-11 03:12N 51°09' E 003°48'0 0.0
2018-Feb-11 02:59N 51°09' E 003°48'0 0.0
2018-Feb-11 02:30N 51°09' E 003°48'0 0.0
2018-Feb-11 02:00N 51°09' E 003°48'0 0.0
2018-Feb-11 01:18N 51°09' E 003°48'0 0.0
2018-Feb-11 00:54N 51°09' E 003°48'0 0.0
2018-Feb-11 00:30N 51°09' E 003°48'0 0.0
2018-Feb-10 23:54N 51°09' E 003°48'0 0.0
2018-Feb-10 23:12N 51°09' E 003°48'0 0.0
2018-Feb-10 23:00N 51°09' E 003°48'0 0.0
2018-Feb-10 22:30N 51°09' E 003°48'0 0.0
2018-Feb-10 21:42N 51°09' E 003°48'0 0.0
2018-Feb-10 21:30N 51°09' E 003°48'0 0.0
2018-Feb-10 20:48N 51°09' E 003°48'0 0.0
2018-Feb-10 20:29N 51°09' E 003°48'0 0.0
2018-Feb-10 19:57N 51°09' E 003°48'0 0.0
2018-Feb-10 19:18N 51°09' E 003°48'0 0.0
2018-Feb-10 19:00N 51°09' E 003°48'0 0.0
2018-Feb-10 18:30N 51°09' E 003°48'0 0.0
2018-Feb-10 17:54N 51°09' E 003°48'0 0.0
2018-Feb-10 17:30N 51°09' E 003°48'0 0.0
2018-Feb-10 16:54N 51°09' E 003°48'0 0.0
2018-Feb-10 16:30N 51°09' E 003°48'0 0.0
2018-Feb-10 16:00N 51°09' E 003°48'0 0.0
2018-Feb-10 15:30N 51°09' E 003°48'0 0.0
2018-Feb-10 15:00N 51°09' E 003°48'0 0.0
2018-Feb-10 14:18N 51°09' E 003°48'0 0.0
2018-Feb-10 14:00N 51°09' E 003°48'0 0.0
2018-Feb-10 13:30N 51°09' E 003°48'0 0.0
2018-Feb-10 13:00N 51°09' E 003°48'0 0.0
2018-Feb-10 12:24N 51°09' E 003°48'0 0.0
2018-Feb-10 11:57N 51°09' E 003°48'0 0.0
2018-Feb-10 11:30N 51°09' E 003°48'  
Track history (hours):
 
Tides and Currents Weather Stations Pressure Air Temp Water Temp Dewpoint Dewpoint Depression Visibility Wind Speed Wind Dir Waves Ship Positions

Rp Zug

Last reported at 2018-Feb-20 11:27 UTC. Time now 2018-Feb-20 12:07 UTC.
Position N 49°18' E 008°29'.

Length 110 m; draft 2.9 m.

Type: Tanker. MMSI: 269057351.

Date/timePositionNaut miles runAvg speedWind from/ knotsBaromVisibWave heightAir tempDewpointWater temp
2018-Feb-20 11:27N 49°18' E 008°29'2 4.7
2018-Feb-20 11:00N 49°19' E 008°27'3 5.2
2018-Feb-20 10:27N 49°22' E 008°30'2 5.3
2018-Feb-20 10:00N 49°24' E 008°30'3 5.1
2018-Feb-20 09:30N 49°27' E 008°30'2 4.6
2018-Feb-20 09:00N 49°27' E 008°27'2 4.1
2018-Feb-20 08:30N 49°29' E 008°27'1 2.4
2018-Feb-20 08:00N 49°31' E 008°26'1 2.3
2018-Feb-20 07:30N 49°32' E 008°26'3 5.8
2018-Feb-20 07:00N 49°35' E 008°25'4 6.0
2018-Feb-20 06:17N 49°39' E 008°22'78 3.9
2018-Feb-19 10:25N 50°41' E 007°11'2 4.7
2018-Feb-19 09:56N 50°43' E 007°08'2 4.7
2018-Feb-19 09:30N 50°45' E 007°06'2 4.5
2018-Feb-19 09:00N 50°46' E 007°04'3 4.4
2018-Feb-19 08:22N 50°49' E 007°02'2 4.6
2018-Feb-19 07:57N 50°50' E 006°59'2 4.0
2018-Feb-19 07:27N 50°51' E 007°01'2 4.6
2018-Feb-19 06:56N 50°53' E 007°03'2 4.4
2018-Feb-19 06:30N 50°54' E 006°60'2 4.8
2018-Feb-19 06:00N 50°56' E 006°58'3 5.1
2018-Feb-19 05:30N 50°58' E 006°60'13 3.3
2018-Feb-19 01:37N 51°09' E 006°49'0 4.2
2018-Feb-19 01:30N 51°09' E 006°48'2 4.2
2018-Feb-19 01:00N 51°11' E 006°48'2 4.4
2018-Feb-19 00:30N 51°11' E 006°44'2 4.3
2018-Feb-19 00:00N 51°13' E 006°43'1 2.9
2018-Feb-18 23:30N 51°13' E 006°46'2 3.7
2018-Feb-18 23:00N 51°15' E 006°45'2 3.8
2018-Feb-18 22:22N 51°17' E 006°42'4 3.4
2018-Feb-18 21:06N 51°21' E 006°40'0 4.7
2018-Feb-18 21:00N 51°21' E 006°40'2 3.3
2018-Feb-18 20:30N 51°22' E 006°41'2 4.7
2018-Feb-18 20:00N 51°23' E 006°44'2 4.5
2018-Feb-18 19:30N 51°26' E 006°43'2 4.0
2018-Feb-18 19:00N 51°28' E 006°43'2 4.3
2018-Feb-18 18:30N 51°29' E 006°41'2 4.4
2018-Feb-18 18:00N 51°30' E 006°43'2 4.7
2018-Feb-18 17:30N 51°32' E 006°41'2 4.7
2018-Feb-18 17:00N 51°34' E 006°41'3 4.7
2018-Feb-18 16:27N 51°34' E 006°37'2 4.8
2018-Feb-18 16:00N 51°36' E 006°36'2 4.6
2018-Feb-18 15:30N 51°38' E 006°36'2 4.2
2018-Feb-18 15:00N 51°39' E 006°33'3 5.4
2018-Feb-18 14:30N 51°40' E 006°29'15 4.8
2018-Feb-18 11:22N 51°50' E 006°11'2 5.4
2018-Feb-18 11:00N 51°51' E 006°08'3 5.7
2018-Feb-18 10:30N 51°52' E 006°04'1 1.1
2018-Feb-18 10:00N 51°52' E 006°03'1 1.0
2018-Feb-18 09:30N 51°52' E 006°02'8 4.8
2018-Feb-18 07:44N 51°52' E 005°49'2 6.6
2018-Feb-18 07:30N 51°53' E 005°46'3 6.4
2018-Feb-18 07:00N 51°54' E 005°41'3 6.6
2018-Feb-18 06:30N 51°54' E 005°36'3 6.4
2018-Feb-18 06:00N 51°53' E 005°31'4 6.1
2018-Feb-18 05:23N 51°52' E 005°25'2 6.5
2018-Feb-18 05:00N 51°50' E 005°23'2 4.6
2018-Feb-18 04:30N 51°49' E 005°20'3 5.9
2018-Feb-18 04:00N 51°49' E 005°15'3 6.1
2018-Feb-18 03:28N 51°49' E 005°10'3 6.2
2018-Feb-18 02:59N 51°50' E 005°05'3 6.6
2018-Feb-18 02:30N 51°49' E 005°00'4 7.4
2018-Feb-18 02:00N 51°49' E 004°54'4 7.3
2018-Feb-18 01:30N 51°49' E 004°48'4 7.4
2018-Feb-18 01:01N 51°49' E 004°42'3 6.2
2018-Feb-18 00:30N 51°52' E 004°39'4 7.3
2018-Feb-18 00:00N 51°54' E 004°35'3 6.2
2018-Feb-17 23:30N 51°55' E 004°30'4 7.3
2018-Feb-17 23:00N 51°54' E 004°24'2 2.7
2018-Feb-17 22:26N 51°53' E 004°22'0 0.0
2018-Feb-17 21:56N 51°53' E 004°22'0 0.0
2018-Feb-17 21:29N 51°53' E 004°22'0 0.0
2018-Feb-17 20:59N 51°53' E 004°22'0 0.0
2018-Feb-17 20:26N 51°53' E 004°22'0 0.0
2018-Feb-17 19:56N 51°53' E 004°22'0 0.0
2018-Feb-17 19:26N 51°53' E 004°22'0 0.0
2018-Feb-17 18:56N 51°53' E 004°22'0 0.0
2018-Feb-17 18:26N 51°53' E 004°22'0 0.0
2018-Feb-17 17:56N 51°53' E 004°22'0 0.0
2018-Feb-17 17:23N 51°53' E 004°22'0 0.0
2018-Feb-17 16:56N 51°53' E 004°22'0 0.0
2018-Feb-17 16:26N 51°53' E 004°22'0 0.0
2018-Feb-17 15:56N 51°53' E 004°22'0 0.0
2018-Feb-17 15:26N 51°53' E 004°22'0 0.0
2018-Feb-17 14:59N 51°53' E 004°22'0 0.0
2018-Feb-17 14:26N 51°53' E 004°22'0 0.0
2018-Feb-17 13:59N 51°53' E 004°22'0 0.0
2018-Feb-17 13:26N 51°53' E 004°22'0 0.0
2018-Feb-17 12:59N 51°53' E 004°22'2 4.4
2018-Feb-17 12:30N 51°54' E 004°25'4 7.6
2018-Feb-17 12:00N 51°54' E 004°31'5 9.1
2018-Feb-17 11:30N 51°53' E 004°38'4 8.7
2018-Feb-17 11:00N 51°49' E 004°42'510.2
2018-Feb-17 10:30N 51°49' E 004°51'510.1
2018-Feb-17 10:00N 51°49' E 004°59'510.4
2018-Feb-17 09:30N 51°49' E 005°07'510.7
2018-Feb-17 09:00N 51°49' E 005°16'4 8.7
2018-Feb-17 08:30N 51°50' E 005°23'610.3
2018-Feb-17 07:58N 51°53' E 005°30'511.3
2018-Feb-17 07:30N 51°54' E 005°38'611.4
2018-Feb-17 07:00N 51°53' E 005°47'6 9.5
2018-Feb-17 06:21N 51°52' E 005°57'4 8.6
2018-Feb-17 05:55N 51°52' E 006°03'511.5
2018-Feb-17 05:30N 51°51' E 006°10'1310.1
2018-Feb-17 04:16N 51°43' E 006°26'311.3
2018-Feb-17 04:00N 51°40' E 006°29'510.0
2018-Feb-17 03:30N 51°38' E 006°36'4 8.2
2018-Feb-17 03:00N 51°35' E 006°40'510.5
2018-Feb-17 02:30N 51°30' E 006°43'4 8.5
2018-Feb-17 02:00N 51°26' E 006°43'5 9.8
2018-Feb-17 01:28N 51°21' E 006°39'5 9.6
2018-Feb-17 00:59N 51°17' E 006°42'3 6.5
2018-Feb-17 00:30N 51°14' E 006°44'5 9.5
2018-Feb-17 00:00N 51°10' E 006°48'10 8.6
2018-Feb-16 22:52N 51°02' E 006°57'410.9
2018-Feb-16 22:30N 50°59' E 006°60'5 9.1
2018-Feb-16 21:56N 50°54' E 007°03'410.0
2018-Feb-16 21:29N 50°50' E 006°59'611.9
2018-Feb-16 20:59N 50°45' E 007°06'5 0.3
2018-Feb-16 04:01N 50°41' E 007°11'1 4.9
2018-Feb-16 03:54N 50°41' E 007°10'2 5.0
2018-Feb-16 03:27N 50°43' E 007°08'2 5.0
2018-Feb-16 03:00N 50°45' E 007°06'3 5.2
2018-Feb-16 02:29N 50°47' E 007°03'2 4.9
2018-Feb-16 01:58N 50°49' E 007°02'1 1.1
2018-Feb-16 01:11N 50°49' E 007°00'0 0.0
2018-Feb-16 00:59N 50°49' E 007°00'0 0.0
2018-Feb-16 00:23N 50°49' E 007°00'0 0.0
2018-Feb-15 23:59N 50°49' E 007°00'0 0.0
2018-Feb-15 20:17N 50°49' E 007°00'0 0.0
2018-Feb-15 19:59N 50°49' E 007°00'0 0.0
2018-Feb-15 19:29N 50°49' E 007°00'0 0.0
2018-Feb-15 18:59N 50°49' E 007°00'0 0.0
2018-Feb-15 18:29N 50°49' E 007°00'0 0.0
2018-Feb-15 17:56N 50°49' E 007°00'0 0.0
2018-Feb-15 17:26N 50°49' E 007°00'0 0.0
2018-Feb-15 16:56N 50°49' E 007°00'0 0.0
2018-Feb-15 16:26N 50°49' E 007°00'0 0.0
2018-Feb-15 15:56N 50°49' E 007°00'0 0.0
2018-Feb-15 15:27N 50°49' E 007°00'0 0.0
2018-Feb-15 14:57N 50°49' E 007°00'0 1.0
2018-Feb-15 14:30N 50°49' E 006°60'0 0.0
2018-Feb-15 14:00N 50°49' E 006°60'0 0.0
2018-Feb-15 13:30N 50°49' E 006°60'0 0.0
2018-Feb-15 13:00N 50°49' E 006°60'0 0.0
2018-Feb-15 12:30N 50°49' E 006°60'0 0.0
2018-Feb-15 12:00N 50°49' E 006°60'0 0.0
2018-Feb-15 11:30N 50°49' E 006°60'0 0.0
2018-Feb-15 10:48N 50°49' E 006°60'0 0.0
2018-Feb-15 10:30N 50°49' E 006°60'0 0.0
2018-Feb-15 10:00N 50°49' E 006°60'0 0.0
2018-Feb-15 09:24N 50°49' E 006°60'0 0.0
2018-Feb-15 08:42N 50°49' E 006°60'0 0.0
2018-Feb-15 08:30N 50°49' E 006°60'0 0.0
2018-Feb-15 08:00N 50°49' E 006°60'0 0.0
2018-Feb-15 07:30N 50°49' E 006°60'0 0.0
2018-Feb-15 06:57N 50°49' E 006°60'0 0.0
2018-Feb-15 06:21N 50°49' E 006°60'0 0.0
2018-Feb-15 05:54N 50°49' E 006°60'0 0.0
2018-Feb-15 04:21N 50°49' E 006°60'0 0.0
2018-Feb-15 03:54N 50°49' E 006°60'0 0.0
2018-Feb-15 03:27N 50°49' E 006°60'0 0.0
2018-Feb-15 03:00N 50°49' E 006°60'0 0.0
2018-Feb-15 02:30N 50°49' E 006°60'0 0.0
2018-Feb-15 01:54N 50°49' E 006°60'0 0.0
2018-Feb-15 01:18N 50°49' E 006°60'0 0.0
2018-Feb-15 00:57N 50°49' E 006°60'0 0.0
2018-Feb-15 00:30N 50°49' E 006°60'0 0.0
2018-Feb-15 00:00N 50°49' E 006°60'0 0.0
2018-Feb-14 23:12N 50°49' E 006°60'0 0.0
2018-Feb-14 23:00N 50°49' E 006°60'0 0.0
2018-Feb-14 22:30N 50°49' E 006°60'0 0.0
2018-Feb-14 18:27N 50°49' E 006°60'0 0.0
2018-Feb-14 17:51N 50°49' E 006°60'0 0.0
2018-Feb-14 17:27N 50°49' E 006°60'0 0.0
2018-Feb-14 16:57N 50°49' E 006°60'0 0.0
2018-Feb-14 16:29N 50°49' E 006°60'0 0.0
2018-Feb-14 15:59N 50°49' E 006°60'0 0.0
2018-Feb-14 15:27N 50°49' E 006°60'3 5.9
2018-Feb-14 14:59N 50°47' E 007°02'712.1
2018-Feb-14 14:23N 50°42' E 007°10'1 0.0
2018-Feb-13 04:33N 50°41' E 007°11'0 5.7
2018-Feb-13 04:30N 50°41' E 007°11'3 5.5
2018-Feb-13 04:00N 50°43' E 007°08'3 5.6
2018-Feb-13 03:30N 50°46' E 007°06'3 5.8
2018-Feb-13 03:00N 50°47' E 007°02'3 5.0
2018-Feb-13 02:29N 50°50' E 006°60'2 3.8
2018-Feb-13 01:58N 50°51' E 007°01'2 5.0
2018-Feb-13 01:29N 50°54' E 007°03'2 5.1
2018-Feb-13 01:01N 50°54' E 006°59'3 5.7
2018-Feb-13 00:28N 50°57' E 006°59'2 4.3
2018-Feb-12 23:58N 50°59' E 006°58'10 4.7
2018-Feb-12 21:47N 51°09' E 006°51'1 2.9
2018-Feb-12 21:25N 51°09' E 006°50'1 3.3
2018-Feb-12 21:00N 51°09' E 006°48'2 4.1
2018-Feb-12 20:30N 51°11' E 006°45'3 5.2
2018-Feb-12 20:00N 51°13' E 006°43'2 3.7
2018-Feb-12 19:31N 51°14' E 006°46'3 5.4
2018-Feb-12 18:59N 51°16' E 006°43'4 5.0
2018-Feb-12 18:07N 51°20' E 006°43'1 6.0
2018-Feb-12 17:56N 51°21' E 006°41'2 4.1
2018-Feb-12 17:31N 51°22' E 006°40'3 5.8
2018-Feb-12 17:00N 51°23' E 006°44'3 5.3
2018-Feb-12 16:31N 51°26' E 006°43'2 4.8
2018-Feb-12 16:00N 51°28' E 006°42'2 3.4
2018-Feb-12 15:30N 51°30' E 006°43'3 5.2
2018-Feb-12 15:00N 51°32' E 006°41'3 5.3
2018-Feb-12 14:31N 51°35' E 006°40'3 5.4
2018-Feb-12 14:00N 51°35' E 006°36'3 6.4
2018-Feb-12 13:30N 51°38' E 006°35'2 4.1
2018-Feb-12 13:01N 51°39' E 006°34'3 6.2
2018-Feb-12 12:31N 51°40' E 006°29'14 5.5
2018-Feb-12 09:54N 51°50' E 006°12'3 6.4
2018-Feb-12 09:31N 51°51' E 006°08'3 6.5
2018-Feb-12 09:00N 51°52' E 006°03'0 0.6
2018-Feb-12 08:30N 51°52' E 006°03'0 0.3
2018-Feb-12 08:01N 51°52' E 006°02'8 5.5
2018-Feb-12 06:37N 51°52' E 005°50'1 7.4
2018-Feb-12 06:29N 51°52' E 005°49'3 7.2
2018-Feb-12 06:00N 51°53' E 005°44'4 7.3
2018-Feb-12 05:31N 51°54' E 005°38'4 7.2
2018-Feb-12 05:01N 51°54' E 005°32'4 6.9
2018-Feb-12 04:29N 51°53' E 005°26'3 7.0
2018-Feb-12 04:01N 51°50' E 005°23'3 5.1
2018-Feb-12 03:30N 51°49' E 005°20'3 6.6
2018-Feb-12 03:00N 51°49' E 005°14'4 7.0
2018-Feb-12 02:29N 51°49' E 005°08'3 6.9
2018-Feb-12 02:00N 51°49' E 005°03'4 8.0
2018-Feb-12 01:31N 51°50' E 004°57'4 8.1
2018-Feb-12 01:00N 51°48' E 004°51'4 7.8
2018-Feb-12 00:30N 51°46' E 004°45'4 8.9
2018-Feb-12 00:01N 51°43' E 004°40'5 9.8
2018-Feb-11 23:30N 51°42' E 004°32'4 8.4
2018-Feb-11 23:00N 51°42' E 004°25'0 0.0
2018-Feb-11 22:30N 51°42' E 004°25'0 0.0
2018-Feb-11 22:00N 51°42' E 004°25'0 0.0
2018-Feb-11 21:31N 51°42' E 004°25'0 0.0
2018-Feb-11 21:01N 51°42' E 004°25'0 0.0
2018-Feb-11 20:31N 51°42' E 004°25'0 0.1
2018-Feb-11 20:00N 51°42' E 004°25'1 1.6
2018-Feb-11 19:24N 51°41' E 004°24'2 3.9
2018-Feb-11 18:54N 51°40' E 004°22'14 6.1
2018-Feb-11 16:41N 51°36' E 004°01'2 7.9
2018-Feb-11 16:23N 51°35' E 003°58'410.4
2018-Feb-11 15:59N 51°31' E 004°01'4 8.3
2018-Feb-11 15:30N 51°27' E 004°01'2 4.2
2018-Feb-11 15:00N 51°26' E 003°59'4 8.0
2018-Feb-11 14:30N 51°22' E 003°55'4 7.7
2018-Feb-11 13:59N 51°21' E 003°50'1 2.0
2018-Feb-11 13:30N 51°20' E 003°49'1 1.9
2018-Feb-11 13:00N 51°19' E 003°50'4 7.6
2018-Feb-11 12:26N 51°14' E 003°49'3 7.2
2018-Feb-11 11:59N 51°11' E 003°48'3 6.5
2018-Feb-11 11:30N 51°08' E 003°47'0 0.0
2018-Feb-11 11:00N 51°08' E 003°47'0 0.0
2018-Feb-11 10:31N 51°08' E 003°47'0 0.0
2018-Feb-11 10:00N 51°08' E 003°47'0 0.0
2018-Feb-11 09:30N 51°08' E 003°47'0 0.0
2018-Feb-11 08:55N 51°08' E 003°47'0 0.0
2018-Feb-11 08:31N 51°08' E 003°47'0 0.0
2018-Feb-11 08:00N 51°08' E 003°47'0 0.0
2018-Feb-11 07:30N 51°08' E 003°47'0 0.0
2018-Feb-11 07:00N 51°08' E 003°47'0 0.0
2018-Feb-11 06:30N 51°08' E 003°47'0 0.0
2018-Feb-11 06:00N 51°08' E 003°47'0 0.0
2018-Feb-11 05:30N 51°08' E 003°47'0 0.6
2018-Feb-11 05:00N 51°08' E 003°47'1 1.5
2018-Feb-11 04:30N 51°09' E 003°48'0 0.0
2018-Feb-11 03:54N 51°09' E 003°48'0 0.0
2018-Feb-11 03:12N 51°09' E 003°48'0 0.0
2018-Feb-11 02:59N 51°09' E 003°48'0 0.0
2018-Feb-11 02:30N 51°09' E 003°48'0 0.0
2018-Feb-11 02:00N 51°09' E 003°48'0 0.0
2018-Feb-11 01:18N 51°09' E 003°48'0 0.0
2018-Feb-11 00:54N 51°09' E 003°48'0 0.0
2018-Feb-11 00:30N 51°09' E 003°48'0 0.0
2018-Feb-10 23:54N 51°09' E 003°48'0 0.0
2018-Feb-10 23:12N 51°09' E 003°48'0 0.0
2018-Feb-10 23:00N 51°09' E 003°48'0 0.0
2018-Feb-10 22:30N 51°09' E 003°48'0 0.0
2018-Feb-10 21:42N 51°09' E 003°48'0 0.0
2018-Feb-10 21:30N 51°09' E 003°48'0 0.0
2018-Feb-10 20:48N 51°09' E 003°48'0 0.0
2018-Feb-10 20:29N 51°09' E 003°48'0 0.0
2018-Feb-10 19:57N 51°09' E 003°48'0 0.0
2018-Feb-10 19:18N 51°09' E 003°48'0 0.0
2018-Feb-10 19:00N 51°09' E 003°48'0 0.0
2018-Feb-10 18:30N 51°09' E 003°48'0 0.0
2018-Feb-10 17:54N 51°09' E 003°48'0 0.0
2018-Feb-10 17:30N 51°09' E 003°48'0 0.0
2018-Feb-10 16:54N 51°09' E 003°48'0 0.0
2018-Feb-10 16:30N 51°09' E 003°48'0 0.0
2018-Feb-10 16:00N 51°09' E 003°48'0 0.0
2018-Feb-10 15:30N 51°09' E 003°48'0 0.0
2018-Feb-10 15:00N 51°09' E 003°48'0 0.0
2018-Feb-10 14:18N 51°09' E 003°48'0 0.0
2018-Feb-10 14:00N 51°09' E 003°48'0 0.0
2018-Feb-10 13:30N 51°09' E 003°48'0 0.0
2018-Feb-10 13:00N 51°09' E 003°48'0 0.0
2018-Feb-10 12:24N 51°09' E 003°48'0 0.0
2018-Feb-10 11:57N 51°09' E 003°48'0 0.0
2018-Feb-10 11:30N 51°09' E 003°48'  

Dump ship's entire track history